sensor_id;sensor_type;location;lat;lon;timestamp;P1;durP1;ratioP1;P2;durP2;ratioP2
56381;SDS011;50261;51.150;4.470;2023-08-07T00:00:21;12.95;;;2.38;;
56381;SDS011;50261;51.150;4.470;2023-08-07T00:02:47;6.95;;;2.65;;
56381;SDS011;50261;51.150;4.470;2023-08-07T00:05:13;7.65;;;2.20;;
56381;SDS011;50261;51.150;4.470;2023-08-07T00:07:39;9.82;;;2.25;;
56381;SDS011;50261;51.150;4.470;2023-08-07T00:10:04;12.35;;;2.22;;
56381;SDS011;50261;51.150;4.470;2023-08-07T00:12:30;8.50;;;2.03;;
56381;SDS011;50261;51.150;4.470;2023-08-07T00:14:56;10.60;;;2.35;;
56381;SDS011;50261;51.150;4.470;2023-08-07T00:17:22;9.13;;;1.98;;
56381;SDS011;50261;51.150;4.470;2023-08-07T00:19:47;10.45;;;2.53;;
56381;SDS011;50261;51.150;4.470;2023-08-07T00:22:13;8.52;;;2.05;;
56381;SDS011;50261;51.150;4.470;2023-08-07T00:24:39;11.85;;;2.30;;
56381;SDS011;50261;51.150;4.470;2023-08-07T00:27:04;8.23;;;2.25;;
56381;SDS011;50261;51.150;4.470;2023-08-07T00:29:32;11.25;;;2.33;;
56381;SDS011;50261;51.150;4.470;2023-08-07T00:31:58;11.43;;;2.38;;
56381;SDS011;50261;51.150;4.470;2023-08-07T00:34:24;8.85;;;2.53;;
56381;SDS011;50261;51.150;4.470;2023-08-07T00:36:49;7.95;;;1.90;;
56381;SDS011;50261;51.150;4.470;2023-08-07T00:39:15;7.55;;;2.15;;
56381;SDS011;50261;51.150;4.470;2023-08-07T00:41:41;13.35;;;2.20;;
56381;SDS011;50261;51.150;4.470;2023-08-07T00:44:07;9.85;;;2.85;;
56381;SDS011;50261;51.150;4.470;2023-08-07T00:46:33;6.50;;;2.03;;
56381;SDS011;50261;51.150;4.470;2023-08-07T00:48:59;10.45;;;2.45;;
56381;SDS011;50261;51.150;4.470;2023-08-07T00:51:25;7.47;;;2.22;;
56381;SDS011;50261;51.150;4.470;2023-08-07T00:53:52;10.07;;;2.00;;
56381;SDS011;50261;51.150;4.470;2023-08-07T00:56:18;6.40;;;2.20;;
56381;SDS011;50261;51.150;4.470;2023-08-07T00:58:44;6.97;;;2.33;;
56381;SDS011;50261;51.150;4.470;2023-08-07T01:01:10;8.43;;;1.95;;
56381;SDS011;50261;51.150;4.470;2023-08-07T01:03:36;8.85;;;2.38;;
56381;SDS011;50261;51.150;4.470;2023-08-07T01:06:01;7.90;;;2.25;;
56381;SDS011;50261;51.150;4.470;2023-08-07T01:08:27;9.63;;;2.25;;
56381;SDS011;50261;51.150;4.470;2023-08-07T01:13:34;8.15;;;1.85;;
56381;SDS011;50261;51.150;4.470;2023-08-07T01:16:01;10.90;;;2.67;;
56381;SDS011;50261;51.150;4.470;2023-08-07T01:18:32;6.45;;;1.83;;
56381;SDS011;50261;51.150;4.470;2023-08-07T01:21:00;7.35;;;1.92;;
56381;SDS011;50261;51.150;4.470;2023-08-07T01:23:25;6.00;;;1.92;;
56381;SDS011;50261;51.150;4.470;2023-08-07T01:25:51;10.45;;;2.13;;
56381;SDS011;50261;51.150;4.470;2023-08-07T01:28:19;6.57;;;2.08;;
56381;SDS011;50261;51.150;4.470;2023-08-07T01:30:49;10.52;;;2.67;;
56381;SDS011;50261;51.150;4.470;2023-08-07T01:33:27;8.65;;;2.40;;
56381;SDS011;50261;51.150;4.470;2023-08-07T01:35:58;7.25;;;2.05;;
56381;SDS011;50261;51.150;4.470;2023-08-07T01:38:27;6.93;;;2.50;;
56381;SDS011;50261;51.150;4.470;2023-08-07T01:40:54;8.50;;;2.08;;
56381;SDS011;50261;51.150;4.470;2023-08-07T01:43:20;9.13;;;1.83;;
56381;SDS011;50261;51.150;4.470;2023-08-07T01:45:46;5.82;;;1.95;;
56381;SDS011;50261;51.150;4.470;2023-08-07T01:48:12;8.85;;;2.15;;
56381;SDS011;50261;51.150;4.470;2023-08-07T01:50:38;7.15;;;2.30;;
56381;SDS011;50261;51.150;4.470;2023-08-07T01:53:04;8.02;;;2.13;;
56381;SDS011;50261;51.150;4.470;2023-08-07T01:55:30;6.80;;;2.25;;
56381;SDS011;50261;51.150;4.470;2023-08-07T01:57:55;8.13;;;1.83;;
56381;SDS011;50261;51.150;4.470;2023-08-07T02:00:21;7.60;;;2.08;;
56381;SDS011;50261;51.150;4.470;2023-08-07T02:02:47;5.65;;;1.73;;
56381;SDS011;50261;51.150;4.470;2023-08-07T02:05:13;9.77;;;2.08;;
56381;SDS011;50261;51.150;4.470;2023-08-07T02:07:39;5.03;;;1.92;;
56381;SDS011;50261;51.150;4.470;2023-08-07T02:10:05;9.43;;;2.30;;
56381;SDS011;50261;51.150;4.470;2023-08-07T02:12:31;8.45;;;2.28;;
56381;SDS011;50261;51.150;4.470;2023-08-07T02:14:58;14.15;;;2.25;;
56381;SDS011;50261;51.150;4.470;2023-08-07T02:17:24;9.68;;;2.40;;
56381;SDS011;50261;51.150;4.470;2023-08-07T02:19:50;5.18;;;1.65;;
56381;SDS011;50261;51.150;4.470;2023-08-07T02:22:16;8.60;;;1.70;;
56381;SDS011;50261;51.150;4.470;2023-08-07T02:24:41;6.78;;;2.85;;
56381;SDS011;50261;51.150;4.470;2023-08-07T02:27:07;5.13;;;2.00;;
56381;SDS011;50261;51.150;4.470;2023-08-07T02:29:35;7.13;;;2.25;;
56381;SDS011;50261;51.150;4.470;2023-08-07T02:32:04;6.15;;;1.90;;
56381;SDS011;50261;51.150;4.470;2023-08-07T02:34:30;12.25;;;2.63;;
56381;SDS011;50261;51.150;4.470;2023-08-07T02:36:57;7.97;;;2.40;;
56381;SDS011;50261;51.150;4.470;2023-08-07T02:39:23;7.53;;;2.28;;
56381;SDS011;50261;51.150;4.470;2023-08-07T02:41:48;5.97;;;2.10;;
56381;SDS011;50261;51.150;4.470;2023-08-07T02:44:14;10.15;;;1.90;;
56381;SDS011;50261;51.150;4.470;2023-08-07T02:46:40;6.57;;;1.80;;
56381;SDS011;50261;51.150;4.470;2023-08-07T02:49:06;6.15;;;1.92;;
56381;SDS011;50261;51.150;4.470;2023-08-07T02:51:31;9.20;;;2.10;;
56381;SDS011;50261;51.150;4.470;2023-08-07T02:53:57;7.30;;;2.20;;
56381;SDS011;50261;51.150;4.470;2023-08-07T02:56:23;7.55;;;2.15;;
56381;SDS011;50261;51.150;4.470;2023-08-07T02:58:49;12.68;;;1.92;;
56381;SDS011;50261;51.150;4.470;2023-08-07T03:01:15;5.88;;;1.67;;
56381;SDS011;50261;51.150;4.470;2023-08-07T03:03:41;6.72;;;1.83;;
56381;SDS011;50261;51.150;4.470;2023-08-07T03:06:06;14.68;;;2.05;;
56381;SDS011;50261;51.150;4.470;2023-08-07T03:08:32;6.78;;;1.27;;
56381;SDS011;50261;51.150;4.470;2023-08-07T03:10:58;6.55;;;1.88;;
56381;SDS011;50261;51.150;4.470;2023-08-07T03:13:27;6.57;;;2.15;;
56381;SDS011;50261;51.150;4.470;2023-08-07T03:15:59;6.97;;;1.80;;
56381;SDS011;50261;51.150;4.470;2023-08-07T03:18:25;8.38;;;1.63;;
56381;SDS011;50261;51.150;4.470;2023-08-07T03:20:50;4.20;;;1.63;;
56381;SDS011;50261;51.150;4.470;2023-08-07T03:23:16;9.43;;;1.65;;
56381;SDS011;50261;51.150;4.470;2023-08-07T03:25:42;4.75;;;1.70;;
56381;SDS011;50261;51.150;4.470;2023-08-07T03:28:08;6.70;;;1.50;;
56381;SDS011;50261;51.150;4.470;2023-08-07T03:30:33;7.97;;;1.70;;
56381;SDS011;50261;51.150;4.470;2023-08-07T03:32:59;10.73;;;1.80;;
56381;SDS011;50261;51.150;4.470;2023-08-07T03:35:26;4.30;;;1.90;;
56381;SDS011;50261;51.150;4.470;2023-08-07T03:37:51;8.25;;;2.83;;
56381;SDS011;50261;51.150;4.470;2023-08-07T03:40:17;5.30;;;1.58;;
56381;SDS011;50261;51.150;4.470;2023-08-07T03:42:43;6.32;;;2.25;;
56381;SDS011;50261;51.150;4.470;2023-08-07T03:45:10;5.88;;;2.05;;
56381;SDS011;50261;51.150;4.470;2023-08-07T03:47:36;7.43;;;1.83;;
56381;SDS011;50261;51.150;4.470;2023-08-07T03:50:02;5.22;;;1.65;;
56381;SDS011;50261;51.150;4.470;2023-08-07T03:52:29;4.90;;;1.52;;
56381;SDS011;50261;51.150;4.470;2023-08-07T03:54:55;4.57;;;2.10;;
56381;SDS011;50261;51.150;4.470;2023-08-07T03:57:21;6.38;;;2.15;;
56381;SDS011;50261;51.150;4.470;2023-08-07T03:59:48;5.45;;;1.88;;
56381;SDS011;50261;51.150;4.470;2023-08-07T04:02:14;6.47;;;2.58;;
56381;SDS011;50261;51.150;4.470;2023-08-07T04:04:40;6.70;;;1.75;;
56381;SDS011;50261;51.150;4.470;2023-08-07T04:07:06;6.63;;;1.92;;
56381;SDS011;50261;51.150;4.470;2023-08-07T04:09:31;9.85;;;2.15;;
56381;SDS011;50261;51.150;4.470;2023-08-07T04:11:57;7.88;;;1.95;;
56381;SDS011;50261;51.150;4.470;2023-08-07T04:14:23;5.30;;;1.60;;
56381;SDS011;50261;51.150;4.470;2023-08-07T04:16:49;6.13;;;1.75;;
56381;SDS011;50261;51.150;4.470;2023-08-07T04:19:14;5.80;;;1.90;;
56381;SDS011;50261;51.150;4.470;2023-08-07T04:21:40;5.00;;;1.67;;
56381;SDS011;50261;51.150;4.470;2023-08-07T04:24:08;3.08;;;1.35;;
56381;SDS011;50261;51.150;4.470;2023-08-07T04:26:36;5.47;;;1.27;;
56381;SDS011;50261;51.150;4.470;2023-08-07T04:29:02;4.72;;;1.42;;
56381;SDS011;50261;51.150;4.470;2023-08-07T04:31:28;5.72;;;1.40;;
56381;SDS011;50261;51.150;4.470;2023-08-07T04:33:56;9.35;;;1.80;;
56381;SDS011;50261;51.150;4.470;2023-08-07T04:36:22;9.35;;;1.77;;
56381;SDS011;50261;51.150;4.470;2023-08-07T04:38:49;5.55;;;1.85;;
56381;SDS011;50261;51.150;4.470;2023-08-07T04:41:15;4.28;;;1.98;;
56381;SDS011;50261;51.150;4.470;2023-08-07T04:43:40;6.00;;;1.90;;
56381;SDS011;50261;51.150;4.470;2023-08-07T04:46:10;3.67;;;1.58;;
56381;SDS011;50261;51.150;4.470;2023-08-07T04:48:37;7.78;;;2.70;;
56381;SDS011;50261;51.150;4.470;2023-08-07T04:51:03;5.13;;;1.55;;
56381;SDS011;50261;51.150;4.470;2023-08-07T04:53:29;4.80;;;1.70;;
56381;SDS011;50261;51.150;4.470;2023-08-07T04:55:55;8.98;;;1.73;;
56381;SDS011;50261;51.150;4.470;2023-08-07T04:58:20;8.88;;;1.67;;
56381;SDS011;50261;51.150;4.470;2023-08-07T05:00:46;6.07;;;1.90;;
56381;SDS011;50261;51.150;4.470;2023-08-07T05:03:12;2.95;;;1.10;;
56381;SDS011;50261;51.150;4.470;2023-08-07T05:05:38;5.72;;;2.00;;
56381;SDS011;50261;51.150;4.470;2023-08-07T05:08:03;7.32;;;1.80;;
56381;SDS011;50261;51.150;4.470;2023-08-07T05:10:29;5.72;;;1.85;;
56381;SDS011;50261;51.150;4.470;2023-08-07T05:12:55;4.55;;;1.48;;
56381;SDS011;50261;51.150;4.470;2023-08-07T05:15:21;7.38;;;1.63;;
56381;SDS011;50261;51.150;4.470;2023-08-07T05:17:48;6.43;;;1.83;;
56381;SDS011;50261;51.150;4.470;2023-08-07T05:20:14;6.03;;;1.90;;
56381;SDS011;50261;51.150;4.470;2023-08-07T05:22:39;5.72;;;1.95;;
56381;SDS011;50261;51.150;4.470;2023-08-07T05:25:05;7.78;;;2.10;;
56381;SDS011;50261;51.150;4.470;2023-08-07T05:27:31;6.97;;;2.00;;
56381;SDS011;50261;51.150;4.470;2023-08-07T05:29:56;8.60;;;2.00;;
56381;SDS011;50261;51.150;4.470;2023-08-07T05:32:22;5.30;;;2.03;;
56381;SDS011;50261;51.150;4.470;2023-08-07T05:34:47;4.28;;;1.85;;
56381;SDS011;50261;51.150;4.470;2023-08-07T05:37:13;5.13;;;1.67;;
56381;SDS011;50261;51.150;4.470;2023-08-07T05:39:39;5.53;;;2.13;;
56381;SDS011;50261;51.150;4.470;2023-08-07T05:42:05;8.90;;;2.63;;
56381;SDS011;50261;51.150;4.470;2023-08-07T05:44:33;9.60;;;2.25;;
56381;SDS011;50261;51.150;4.470;2023-08-07T05:46:58;4.85;;;1.80;;
56381;SDS011;50261;51.150;4.470;2023-08-07T05:49:24;6.93;;;2.17;;
56381;SDS011;50261;51.150;4.470;2023-08-07T05:51:49;8.25;;;2.40;;
56381;SDS011;50261;51.150;4.470;2023-08-07T05:54:15;8.20;;;2.75;;
56381;SDS011;50261;51.150;4.470;2023-08-07T05:56:42;7.03;;;1.88;;
56381;SDS011;50261;51.150;4.470;2023-08-07T05:59:07;5.63;;;2.22;;
56381;SDS011;50261;51.150;4.470;2023-08-07T06:01:33;6.72;;;2.10;;
56381;SDS011;50261;51.150;4.470;2023-08-07T06:03:59;8.15;;;1.85;;
56381;SDS011;50261;51.150;4.470;2023-08-07T06:06:26;5.95;;;1.77;;
56381;SDS011;50261;51.150;4.470;2023-08-07T06:08:53;6.65;;;2.30;;
56381;SDS011;50261;51.150;4.470;2023-08-07T06:11:19;8.68;;;1.92;;
56381;SDS011;50261;51.150;4.470;2023-08-07T06:13:45;7.10;;;2.00;;
56381;SDS011;50261;51.150;4.470;2023-08-07T06:16:10;5.72;;;1.83;;
56381;SDS011;50261;51.150;4.470;2023-08-07T06:18:36;6.88;;;1.80;;
56381;SDS011;50261;51.150;4.470;2023-08-07T06:21:11;7.60;;;2.20;;
56381;SDS011;50261;51.150;4.470;2023-08-07T06:23:37;5.90;;;2.08;;
56381;SDS011;50261;51.150;4.470;2023-08-07T06:26:03;6.03;;;1.85;;
56381;SDS011;50261;51.150;4.470;2023-08-07T06:28:29;5.45;;;1.92;;
56381;SDS011;50261;51.150;4.470;2023-08-07T06:31:02;6.72;;;1.70;;
56381;SDS011;50261;51.150;4.470;2023-08-07T06:33:27;8.43;;;1.85;;
56381;SDS011;50261;51.150;4.470;2023-08-07T06:35:53;4.63;;;2.05;;
56381;SDS011;50261;51.150;4.470;2023-08-07T06:38:19;6.03;;;1.58;;
56381;SDS011;50261;51.150;4.470;2023-08-07T06:40:45;5.70;;;1.70;;
56381;SDS011;50261;51.150;4.470;2023-08-07T06:43:10;12.35;;;1.80;;
56381;SDS011;50261;51.150;4.470;2023-08-07T06:45:36;11.00;;;2.33;;
56381;SDS011;50261;51.150;4.470;2023-08-07T06:48:02;10.95;;;1.58;;
56381;SDS011;50261;51.150;4.470;2023-08-07T06:50:28;8.02;;;2.20;;
56381;SDS011;50261;51.150;4.470;2023-08-07T06:52:53;6.28;;;1.95;;
56381;SDS011;50261;51.150;4.470;2023-08-07T06:55:19;8.57;;;1.98;;
56381;SDS011;50261;51.150;4.470;2023-08-07T06:57:45;7.15;;;1.67;;
56381;SDS011;50261;51.150;4.470;2023-08-07T07:00:11;6.70;;;1.88;;
56381;SDS011;50261;51.150;4.470;2023-08-07T07:02:37;6.82;;;2.38;;
56381;SDS011;50261;51.150;4.470;2023-08-07T07:05:02;5.45;;;1.85;;
56381;SDS011;50261;51.150;4.470;2023-08-07T07:07:30;4.15;;;1.75;;
56381;SDS011;50261;51.150;4.470;2023-08-07T07:09:56;7.85;;;1.98;;
56381;SDS011;50261;51.150;4.470;2023-08-07T07:12:23;6.07;;;2.00;;
56381;SDS011;50261;51.150;4.470;2023-08-07T07:14:49;5.93;;;2.28;;
56381;SDS011;50261;51.150;4.470;2023-08-07T07:17:14;5.97;;;1.65;;
56381;SDS011;50261;51.150;4.470;2023-08-07T07:19:40;4.32;;;1.60;;
56381;SDS011;50261;51.150;4.470;2023-08-07T07:22:06;4.93;;;1.70;;
56381;SDS011;50261;51.150;4.470;2023-08-07T07:24:31;6.30;;;1.83;;
56381;SDS011;50261;51.150;4.470;2023-08-07T07:26:57;5.57;;;2.03;;
56381;SDS011;50261;51.150;4.470;2023-08-07T07:29:23;4.18;;;1.80;;
56381;SDS011;50261;51.150;4.470;2023-08-07T07:31:49;6.53;;;2.10;;
56381;SDS011;50261;51.150;4.470;2023-08-07T07:34:15;8.00;;;2.60;;
56381;SDS011;50261;51.150;4.470;2023-08-07T07:36:40;9.82;;;1.90;;
56381;SDS011;50261;51.150;4.470;2023-08-07T07:39:06;3.15;;;1.50;;
56381;SDS011;50261;51.150;4.470;2023-08-07T07:41:32;5.72;;;1.90;;
56381;SDS011;50261;51.150;4.470;2023-08-07T07:43:58;5.45;;;1.73;;
56381;SDS011;50261;51.150;4.470;2023-08-07T07:46:23;4.47;;;1.70;;
56381;SDS011;50261;51.150;4.470;2023-08-07T07:48:49;7.03;;;2.05;;
56381;SDS011;50261;51.150;4.470;2023-08-07T07:51:15;5.28;;;2.13;;
56381;SDS011;50261;51.150;4.470;2023-08-07T07:53:41;5.38;;;1.70;;
56381;SDS011;50261;51.150;4.470;2023-08-07T07:56:06;5.05;;;1.25;;
56381;SDS011;50261;51.150;4.470;2023-08-07T07:58:32;5.05;;;1.50;;
56381;SDS011;50261;51.150;4.470;2023-08-07T08:00:58;4.18;;;1.48;;
56381;SDS011;50261;51.150;4.470;2023-08-07T08:03:23;6.03;;;1.98;;
56381;SDS011;50261;51.150;4.470;2023-08-07T08:05:50;5.75;;;1.77;;
56381;SDS011;50261;51.150;4.470;2023-08-07T08:08:15;5.70;;;1.90;;
56381;SDS011;50261;51.150;4.470;2023-08-07T08:10:42;6.13;;;1.67;;
56381;SDS011;50261;51.150;4.470;2023-08-07T08:13:09;8.73;;;2.53;;
56381;SDS011;50261;51.150;4.470;2023-08-07T08:15:34;3.85;;;1.50;;
56381;SDS011;50261;51.150;4.470;2023-08-07T08:18:00;4.18;;;1.80;;
56381;SDS011;50261;51.150;4.470;2023-08-07T08:20:26;8.27;;;1.88;;
56381;SDS011;50261;51.150;4.470;2023-08-07T08:22:51;3.75;;;1.60;;
56381;SDS011;50261;51.150;4.470;2023-08-07T08:25:17;5.60;;;1.92;;
56381;SDS011;50261;51.150;4.470;2023-08-07T08:27:43;6.45;;;2.13;;
56381;SDS011;50261;51.150;4.470;2023-08-07T08:30:09;5.10;;;1.52;;
56381;SDS011;50261;51.150;4.470;2023-08-07T08:32:34;5.10;;;2.00;;
56381;SDS011;50261;51.150;4.470;2023-08-07T08:35:00;6.43;;;1.35;;
56381;SDS011;50261;51.150;4.470;2023-08-07T08:37:26;5.93;;;1.52;;
56381;SDS011;50261;51.150;4.470;2023-08-07T08:39:52;5.40;;;1.45;;
56381;SDS011;50261;51.150;4.470;2023-08-07T08:42:18;4.07;;;1.67;;
56381;SDS011;50261;51.150;4.470;2023-08-07T08:45:05;3.55;;;1.73;;
56381;SDS011;50261;51.150;4.470;2023-08-07T08:47:30;3.90;;;1.38;;
56381;SDS011;50261;51.150;4.470;2023-08-07T08:50:10;3.67;;;1.50;;
56381;SDS011;50261;51.150;4.470;2023-08-07T08:52:37;3.97;;;1.60;;
56381;SDS011;50261;51.150;4.470;2023-08-07T08:55:04;4.13;;;1.40;;
56381;SDS011;50261;51.150;4.470;2023-08-07T08:57:30;5.32;;;1.35;;
56381;SDS011;50261;51.150;4.470;2023-08-07T08:59:56;4.55;;;1.65;;
56381;SDS011;50261;51.150;4.470;2023-08-07T09:02:22;4.03;;;1.42;;
56381;SDS011;50261;51.150;4.470;2023-08-07T09:04:48;4.15;;;1.45;;
56381;SDS011;50261;51.150;4.470;2023-08-07T09:07:15;2.70;;;1.50;;
56381;SDS011;50261;51.150;4.470;2023-08-07T09:09:41;3.25;;;1.30;;
56381;SDS011;50261;51.150;4.470;2023-08-07T09:12:13;4.95;;;1.40;;
56381;SDS011;50261;51.150;4.470;2023-08-07T09:14:41;4.13;;;1.50;;
56381;SDS011;50261;51.150;4.470;2023-08-07T09:17:09;4.35;;;1.48;;
56381;SDS011;50261;51.150;4.470;2023-08-07T09:19:36;2.40;;;1.25;;
56381;SDS011;50261;51.150;4.470;2023-08-07T09:22:02;7.63;;;1.67;;
56381;SDS011;50261;51.150;4.470;2023-08-07T09:24:28;3.08;;;1.17;;
56381;SDS011;50261;51.150;4.470;2023-08-07T09:26:54;5.55;;;1.67;;
56381;SDS011;50261;51.150;4.470;2023-08-07T09:29:20;3.10;;;1.20;;
56381;SDS011;50261;51.150;4.470;2023-08-07T09:31:47;6.40;;;1.73;;
56381;SDS011;50261;51.150;4.470;2023-08-07T09:34:13;3.75;;;1.25;;
56381;SDS011;50261;51.150;4.470;2023-08-07T09:36:41;2.28;;;1.15;;
56381;SDS011;50261;51.150;4.470;2023-08-07T09:39:07;6.63;;;1.20;;
56381;SDS011;50261;51.150;4.470;2023-08-07T09:41:33;5.18;;;1.40;;
56381;SDS011;50261;51.150;4.470;2023-08-07T09:44:05;4.70;;;1.50;;
56381;SDS011;50261;51.150;4.470;2023-08-07T09:46:32;2.50;;;1.13;;
56381;SDS011;50261;51.150;4.470;2023-08-07T09:49:02;4.47;;;1.40;;
56381;SDS011;50261;51.150;4.470;2023-08-07T09:51:33;4.50;;;1.45;;
56381;SDS011;50261;51.150;4.470;2023-08-07T09:54:06;5.38;;;1.48;;
56381;SDS011;50261;51.150;4.470;2023-08-07T09:56:32;3.58;;;1.65;;
56381;SDS011;50261;51.150;4.470;2023-08-07T09:58:58;4.22;;;1.30;;
56381;SDS011;50261;51.150;4.470;2023-08-07T10:01:24;2.58;;;1.13;;
56381;SDS011;50261;51.150;4.470;2023-08-07T10:03:50;1.95;;;1.25;;
56381;SDS011;50261;51.150;4.470;2023-08-07T10:06:17;2.53;;;1.20;;
56381;SDS011;50261;51.150;4.470;2023-08-07T10:08:44;2.47;;;1.30;;
56381;SDS011;50261;51.150;4.470;2023-08-07T10:11:10;3.13;;;1.35;;
56381;SDS011;50261;51.150;4.470;2023-08-07T10:13:37;3.38;;;1.60;;
56381;SDS011;50261;51.150;4.470;2023-08-07T10:16:03;4.00;;;1.27;;
56381;SDS011;50261;51.150;4.470;2023-08-07T10:18:28;8.00;;;2.05;;
56381;SDS011;50261;51.150;4.470;2023-08-07T10:20:54;4.20;;;1.23;;
56381;SDS011;50261;51.150;4.470;2023-08-07T10:23:21;2.92;;;1.40;;
56381;SDS011;50261;51.150;4.470;2023-08-07T10:25:47;2.65;;;1.05;;
56381;SDS011;50261;51.150;4.470;2023-08-07T10:28:14;2.85;;;1.30;;
56381;SDS011;50261;51.150;4.470;2023-08-07T10:30:42;1.95;;;1.17;;
56381;SDS011;50261;51.150;4.470;2023-08-07T10:33:09;2.75;;;1.05;;
56381;SDS011;50261;51.150;4.470;2023-08-07T10:35:35;3.15;;;1.30;;
56381;SDS011;50261;51.150;4.470;2023-08-07T10:38:05;1.73;;;1.20;;
56381;SDS011;50261;51.150;4.470;2023-08-07T10:40:32;3.72;;;1.38;;
56381;SDS011;50261;51.150;4.470;2023-08-07T10:42:59;3.00;;;1.30;;
56381;SDS011;50261;51.150;4.470;2023-08-07T10:45:25;2.65;;;1.02;;
56381;SDS011;50261;51.150;4.470;2023-08-07T10:48:07;5.03;;;1.10;;
56381;SDS011;50261;51.150;4.470;2023-08-07T10:50:35;3.17;;;0.93;;
56381;SDS011;50261;51.150;4.470;2023-08-07T10:53:04;2.85;;;1.27;;
56381;SDS011;50261;51.150;4.470;2023-08-07T10:55:48;2.20;;;0.82;;
56381;SDS011;50261;51.150;4.470;2023-08-07T11:00:39;3.05;;;1.15;;
56381;SDS011;50261;51.150;4.470;2023-08-07T11:03:05;2.92;;;1.27;;
56381;SDS011;50261;51.150;4.470;2023-08-07T11:05:31;3.70;;;1.70;;
56381;SDS011;50261;51.150;4.470;2023-08-07T11:07:56;1.70;;;0.80;;
56381;SDS011;50261;51.150;4.470;2023-08-07T11:10:23;2.67;;;0.47;;
56381;SDS011;50261;51.150;4.470;2023-08-07T11:12:49;2.47;;;1.10;;
56381;SDS011;50261;51.150;4.470;2023-08-07T11:15:15;5.45;;;1.00;;
56381;SDS011;50261;51.150;4.470;2023-08-07T11:17:40;2.70;;;1.10;;
56381;SDS011;50261;51.150;4.470;2023-08-07T11:20:06;2.50;;;1.20;;
56381;SDS011;50261;51.150;4.470;2023-08-07T11:22:32;3.67;;;0.95;;
56381;SDS011;50261;51.150;4.470;2023-08-07T11:24:58;1.73;;;0.85;;
56381;SDS011;50261;51.150;4.470;2023-08-07T11:27:23;1.52;;;0.88;;
56381;SDS011;50261;51.150;4.470;2023-08-07T11:29:49;2.28;;;1.10;;
56381;SDS011;50261;51.150;4.470;2023-08-07T11:32:15;2.33;;;1.10;;
56381;SDS011;50261;51.150;4.470;2023-08-07T11:34:46;2.22;;;1.00;;
56381;SDS011;50261;51.150;4.470;2023-08-07T11:37:15;1.63;;;0.93;;
56381;SDS011;50261;51.150;4.470;2023-08-07T11:39:44;1.58;;;1.00;;
56381;SDS011;50261;51.150;4.470;2023-08-07T11:42:09;1.40;;;0.80;;
56381;SDS011;50261;51.150;4.470;2023-08-07T11:44:35;2.92;;;0.90;;
56381;SDS011;50261;51.150;4.470;2023-08-07T11:47:01;1.35;;;0.90;;
56381;SDS011;50261;51.150;4.470;2023-08-07T11:49:27;3.17;;;1.02;;
56381;SDS011;50261;51.150;4.470;2023-08-07T11:51:54;0.80;;;0.75;;
56381;SDS011;50261;51.150;4.470;2023-08-07T11:54:20;2.88;;;0.88;;
56381;SDS011;50261;51.150;4.470;2023-08-07T11:56:46;3.30;;;1.27;;
56381;SDS011;50261;51.150;4.470;2023-08-07T11:59:12;1.67;;;0.95;;
56381;SDS011;50261;51.150;4.470;2023-08-07T12:01:41;2.78;;;0.95;;
56381;SDS011;50261;51.150;4.470;2023-08-07T12:04:08;2.00;;;0.90;;
56381;SDS011;50261;51.150;4.470;2023-08-07T12:06:34;3.95;;;1.10;;
56381;SDS011;50261;51.150;4.470;2023-08-07T12:09:01;2.85;;;0.98;;
56381;SDS011;50261;51.150;4.470;2023-08-07T12:11:28;5.97;;;1.30;;
56381;SDS011;50261;51.150;4.470;2023-08-07T12:13:54;3.72;;;1.30;;
56381;SDS011;50261;51.150;4.470;2023-08-07T12:16:20;3.38;;;1.05;;
56381;SDS011;50261;51.150;4.470;2023-08-07T12:18:49;1.52;;;0.90;;
56381;SDS011;50261;51.150;4.470;2023-08-07T12:21:26;1.85;;;1.02;;
56381;SDS011;50261;51.150;4.470;2023-08-07T12:23:56;2.13;;;0.85;;
56381;SDS011;50261;51.150;4.470;2023-08-07T12:26:21;4.78;;;1.38;;
56381;SDS011;50261;51.150;4.470;2023-08-07T12:28:47;3.05;;;1.17;;
56381;SDS011;50261;51.150;4.470;2023-08-07T12:31:13;2.25;;;0.80;;
56381;SDS011;50261;51.150;4.470;2023-08-07T12:33:38;2.25;;;1.02;;
56381;SDS011;50261;51.150;4.470;2023-08-07T12:36:04;2.13;;;1.27;;
56381;SDS011;50261;51.150;4.470;2023-08-07T12:38:30;5.10;;;1.20;;
56381;SDS011;50261;51.150;4.470;2023-08-07T12:40:56;2.28;;;1.00;;
56381;SDS011;50261;51.150;4.470;2023-08-07T12:43:22;1.67;;;0.98;;
56381;SDS011;50261;51.150;4.470;2023-08-07T12:45:48;3.45;;;1.00;;
56381;SDS011;50261;51.150;4.470;2023-08-07T12:48:14;5.03;;;0.95;;
56381;SDS011;50261;51.150;4.470;2023-08-07T12:50:39;1.25;;;0.65;;
56381;SDS011;50261;51.150;4.470;2023-08-07T12:53:05;2.63;;;1.08;;
56381;SDS011;50261;51.150;4.470;2023-08-07T12:55:31;2.15;;;0.80;;
56381;SDS011;50261;51.150;4.470;2023-08-07T12:57:57;5.13;;;0.90;;
56381;SDS011;50261;51.150;4.470;2023-08-07T13:00:23;2.00;;;0.85;;
56381;SDS011;50261;51.150;4.470;2023-08-07T13:02:49;4.20;;;0.90;;
56381;SDS011;50261;51.150;4.470;2023-08-07T13:05:15;3.47;;;0.80;;
56381;SDS011;50261;51.150;4.470;2023-08-07T13:07:45;1.42;;;0.80;;
56381;SDS011;50261;51.150;4.470;2023-08-07T13:10:12;2.53;;;0.85;;
56381;SDS011;50261;51.150;4.470;2023-08-07T13:12:38;1.45;;;0.70;;
56381;SDS011;50261;51.150;4.470;2023-08-07T13:15:05;1.58;;;0.90;;
56381;SDS011;50261;51.150;4.470;2023-08-07T13:17:32;2.83;;;1.00;;
56381;SDS011;50261;51.150;4.470;2023-08-07T13:19:58;3.20;;;0.93;;
56381;SDS011;50261;51.150;4.470;2023-08-07T13:22:24;2.90;;;0.90;;
56381;SDS011;50261;51.150;4.470;2023-08-07T13:24:50;2.10;;;1.00;;
56381;SDS011;50261;51.150;4.470;2023-08-07T13:27:16;1.40;;;0.70;;
56381;SDS011;50261;51.150;4.470;2023-08-07T13:29:42;1.67;;;0.80;;
56381;SDS011;50261;51.150;4.470;2023-08-07T13:32:07;1.17;;;0.55;;
56381;SDS011;50261;51.150;4.470;2023-08-07T13:34:36;2.17;;;0.75;;
56381;SDS011;50261;51.150;4.470;2023-08-07T13:37:02;2.75;;;0.77;;
56381;SDS011;50261;51.150;4.470;2023-08-07T13:39:28;2.15;;;0.82;;
56381;SDS011;50261;51.150;4.470;2023-08-07T13:41:53;6.80;;;0.90;;
56381;SDS011;50261;51.150;4.470;2023-08-07T13:44:19;2.08;;;0.90;;
56381;SDS011;50261;51.150;4.470;2023-08-07T13:46:45;4.53;;;0.75;;
56381;SDS011;50261;51.150;4.470;2023-08-07T13:49:13;3.25;;;0.80;;
56381;SDS011;50261;51.150;4.470;2023-08-07T13:51:39;4.10;;;0.80;;
56381;SDS011;50261;51.150;4.470;2023-08-07T13:54:05;2.70;;;0.60;;
56381;SDS011;50261;51.150;4.470;2023-08-07T13:56:31;2.22;;;0.70;;
56381;SDS011;50261;51.150;4.470;2023-08-07T13:58:57;1.20;;;0.45;;
56381;SDS011;50261;51.150;4.470;2023-08-07T14:01:22;4.53;;;0.70;;
56381;SDS011;50261;51.150;4.470;2023-08-07T14:03:48;3.10;;;0.93;;
56381;SDS011;50261;51.150;4.470;2023-08-07T14:06:14;1.20;;;0.50;;
56381;SDS011;50261;51.150;4.470;2023-08-07T14:08:40;2.95;;;0.52;;
56381;SDS011;50261;51.150;4.470;2023-08-07T14:11:06;2.33;;;0.60;;
56381;SDS011;50261;51.150;4.470;2023-08-07T14:13:31;1.50;;;0.50;;
56381;SDS011;50261;51.150;4.470;2023-08-07T14:15:57;2.72;;;0.80;;
56381;SDS011;50261;51.150;4.470;2023-08-07T14:18:23;2.17;;;0.73;;
56381;SDS011;50261;51.150;4.470;2023-08-07T14:20:48;2.22;;;0.60;;
56381;SDS011;50261;51.150;4.470;2023-08-07T14:23:14;1.33;;;0.40;;
56381;SDS011;50261;51.150;4.470;2023-08-07T14:25:39;1.33;;;0.50;;
56381;SDS011;50261;51.150;4.470;2023-08-07T14:28:05;2.75;;;0.40;;
56381;SDS011;50261;51.150;4.470;2023-08-07T14:30:33;3.95;;;0.50;;
56381;SDS011;50261;51.150;4.470;2023-08-07T14:32:58;2.00;;;0.50;;
56381;SDS011;50261;51.150;4.470;2023-08-07T14:35:24;1.70;;;0.40;;
56381;SDS011;50261;51.150;4.470;2023-08-07T14:37:50;2.85;;;0.60;;
56381;SDS011;50261;51.150;4.470;2023-08-07T14:40:16;1.35;;;0.60;;
56381;SDS011;50261;51.150;4.470;2023-08-07T14:42:41;1.35;;;0.50;;
56381;SDS011;50261;51.150;4.470;2023-08-07T14:45:07;1.52;;;0.55;;
56381;SDS011;50261;51.150;4.470;2023-08-07T14:47:33;2.35;;;0.43;;